Flight Track Log - Related Links

Times and Time Zones

All times are in EDT time to prevent confusion due to time zone crossing. See the SKW6345 flight status page for this flight to view local times or setup timezone preferences in your user account.

Time Position Orientation Groundspeed Altitude Reporting Facility
EDT Latitude Longitude Course Direction KTS MPH feet Rate Location/Type
Tue 01:48:35 PM 45.7089 -111.1586 210° Southwest 231 266 7,500  Level Salt Lake Center
Tue 01:49:37 PM 45.7036 -111.2514 265° West 233 268 9,900 2,032 Climbing Salt Lake Center
Tue 01:50:39 PM 45.7156 -111.3544 279° West 253 291 11,700 1,790 Climbing Salt Lake Center
Tue 01:51:00 PM 45.7846 -111.8639 288° West  Level FlightAware Approximate
Tue 01:51:41 PM 45.7256 -111.4636 278° West 267 307 13,600  Level Salt Lake Center
Tue 01:52:00 PM 45.8184 -112.0070 290° West  Level FlightAware Approximate
Tue 01:52:43 PM 45.7389 -111.5817 279° West 291 335 14,900  Level Salt Lake Center
Tue 01:53:45 PM 45.7003 -111.7181 248° West 320 368 16,400 1,355 Climbing Salt Lake Center
Tue 01:54:47 PM 45.6508 -111.8294 238° Southwest 331 381 17,700 1,113 Climbing Salt Lake Center
Tue 01:55:49 PM 45.5989 -111.9417 237° Southwest 337 388 18,700 1,161 Climbing Salt Lake Center
Tue 01:56:51 PM 45.5472 -112.0542 237° Southwest 340 391 20,100 1,113 Climbing Salt Lake Center
Tue 01:57:53 PM 45.4936 -112.1703 237° Southwest 349 402 21,000 919 Climbing Salt Lake Center
Tue 01:58:55 PM 45.4375 -112.2856 235° Southwest 355 409 22,000 1,016 Climbing Salt Lake Center
Tue 01:59:57 PM 45.3431 -112.3731 213° Southwest 362 417 23,100 968 Climbing Salt Lake Center
Tue 02:00:59 PM 45.2522 -112.4717 217° Southwest 368 423 24,000 823 Climbing Salt Lake Center
Tue 02:02:01 PM 45.1758 -112.5597 219° Southwest 371 427 24,800 774 Climbing Salt Lake Center
Tue 02:03:03 PM 45.0892 -112.6733 223° Southwest 378 435 25,600 726 Climbing Salt Lake Center
Tue 02:04:05 PM 45.0144 -112.7692 222° Southwest 379 436 26,300 726 Climbing Salt Lake Center
Tue 02:05:07 PM 44.9269 -112.8833 223° Southwest 383 441 27,100 726 Climbing Salt Lake Center
Tue 02:06:09 PM 44.8508 -112.9814 222° Southwest 387 445 27,800 677 Climbing Salt Lake Center
Tue 02:07:11 PM 44.7611 -113.0978 223° Southwest 391 450 28,500 581 Climbing Salt Lake Center
Tue 02:08:13 PM 44.6836 -113.1986 223° Southwest 395 455 29,000 242 Climbing Salt Lake Center
Tue 02:09:15 PM 44.5894 -113.3189 222° Southwest 406 467 29,000  Level Salt Lake Center
Tue 02:10:17 PM 44.5078 -113.4247 223° Southwest 416 479 29,000 240 Level Salt Lake Center
Tue 02:11:20 PM 44.4389 -113.5511 233° Southwest 430 495 29,500 624 Climbing Salt Lake Center
Tue 02:12:22 PM 44.3756 -113.7122 241° Southwest 423 487 30,300 710 Climbing Salt Lake Center
Tue 02:14:26 PM 44.2575 -114.0022 240° Southwest 413 475 31,700 548 Climbing Salt Lake Center
Tue 02:15:28 PM 44.2033 -114.1342 240° Southwest 409 471 32,000 145 Climbing Salt Lake Center
Tue 02:16:30 PM 44.1406 -114.2911 241° Southwest 419 482 32,000  Level Salt Lake Center
Tue 02:17:32 PM 44.0844 -114.4261 240° Southwest 421 484 32,000  Level Salt Lake Center
Tue 02:18:34 PM 44.0200 -114.5856 241° Southwest 423 487 32,000  Level Salt Lake Center
Tue 02:19:36 PM 43.9597 -114.7303 240° Southwest 423 487 32,000  Level Salt Lake Center
Tue 02:20:38 PM 43.8989 -114.8792 240° Southwest 424 488 32,000  Level Salt Lake Center
Tue 02:21:40 PM 43.8389 -115.0275 241° Southwest 425 489 32,000  Level Salt Lake Center
Tue 02:22:42 PM 43.7767 -115.1731 239° Southwest 420 483 32,000  Level Salt Lake Center
Tue 02:23:44 PM 43.7164 -115.3169 240° Southwest 417 480 32,000  Level Salt Lake Center
Tue 02:24:46 PM 43.6592 -115.4503 239° Southwest 418 481 32,000  Level Salt Lake Center
Tue 02:25:48 PM 43.5981 -115.5942 240° Southwest 418 481 32,000  Level Salt Lake Center
Tue 02:26:50 PM 43.5381 -115.7381 240° Southwest 417 480 32,000  Level Salt Lake Center
Tue 02:27:52 PM 43.4761 -115.8814 239° Southwest 419 482 32,000  Level Salt Lake Center
Tue 02:28:54 PM 43.4142 -116.0247 239° Southwest 419 482 32,000  Level Salt Lake Center
Tue 02:29:56 PM 43.3525 -116.1672 239° Southwest 418 481 32,000  Level Salt Lake Center
Tue 02:30:59 PM 43.2903 -116.3083 239° Southwest 417 480 32,000  Level Salt Lake Center
Tue 02:32:01 PM 43.2281 -116.4500 239° Southwest 417 480 32,000  Level Salt Lake Center
Tue 02:33:03 PM 43.1653 -116.5925 239° Southwest 420 483 32,000  Level Salt Lake Center
Tue 02:34:05 PM 43.1069 -116.7228 239° Southwest 417 480 32,000  Level Salt Lake Center
Tue 02:35:07 PM 43.0436 -116.8636 238° Southwest 418 481 32,000  Level Salt Lake Center
Tue 02:36:09 PM 42.9811 -117.0050 239° Southwest 417 480 32,000  Level Salt Lake Center
Tue 02:37:11 PM 42.9192 -117.1442 239° Southwest 410 472 32,000  Level Salt Lake Center
Tue 02:38:13 PM 42.8553 -117.2856 238° Southwest 419 482 32,000  Level Salt Lake Center
Tue 02:39:15 PM 42.7922 -117.4253 238° Southwest 416 479 32,000  Level Salt Lake Center
Tue 02:40:17 PM 42.7308 -117.5592 238° Southwest 417 480 32,000  Level Salt Lake Center
Tue 02:41:19 PM 42.6733 -117.6867 239° Southwest 416 479 32,000  Level Salt Lake Center
Tue 02:42:21 PM 42.6022 -117.8300 236° Southwest 412 474 32,000  Level Salt Lake Center
Tue 02:43:23 PM 42.5122 -117.9175 216° Southwest 419 482 32,000  Level Salt Lake Center
Tue 02:44:25 PM 42.3919 -117.9900 204° Southwest 422 486 32,000  Level Salt Lake Center
Tue 02:45:27 PM 42.2894 -118.0528 204° Southwest 424 488 32,000  Level Salt Lake Center
Tue 02:46:29 PM 42.1692 -118.1250 204° Southwest 425 489 32,000  Level Salt Lake Center
Tue 02:47:31 PM 42.0672 -118.1892 205° Southwest 423 487 32,000  Level Salt Lake Center
Tue 02:48:33 PM 41.9464 -118.2608 204° Southwest 426 490 32,000  Level Salt Lake Center
Tue 02:49:36 PM 41.8442 -118.3214 204° Southwest 422 486 32,000  Level Salt Lake Center
Tue 02:50:38 PM 41.7236 -118.3939 204° Southwest 424 488 32,000  Level Salt Lake Center
Tue 02:51:40 PM 41.6206 -118.4547 204° Southwest 424 488 32,000  Level Salt Lake Center
Tue 02:52:42 PM 41.5014 -118.5261 204° Southwest 422 486 32,000  Level Salt Lake Center
Tue 02:53:44 PM 41.3986 -118.5864 204° Southwest 423 487 32,000  Level Salt Lake Center
Tue 02:54:46 PM 41.2792 -118.6575 204° Southwest 423 487 32,000  Level Salt Lake Center
Tue 02:55:48 PM 41.1769 -118.7167 204° Southwest 421 484 32,000  Level Salt Lake Center
Tue 02:56:50 PM 41.0569 -118.7881 204° Southwest 423 487 32,000  Level Salt Lake Center
Tue 02:57:52 PM 40.9544 -118.8472 204° Southwest 422 486 32,000  Level Salt Lake Center
Tue 02:58:42 PM 40.8706 -118.8961 204° Southwest 422 486 32,000  Level Oakland Center
Tue 02:59:43 PM 40.7436 -118.9692 204° Southwest 423 487 32,000  Level Oakland Center
Tue 03:00:45 PM 40.6369 -119.0306 204° Southwest 420 483 32,000  Level Oakland Center
Tue 03:01:46 PM 40.5300 -119.0931 204° Southwest 421 484 32,000  Level Oakland Center
Tue 03:02:48 PM 40.4228 -119.1533 203° Southwest 420 483 32,000  Level Oakland Center
Tue 03:03:49 PM 40.3186 -119.2167 205° Southwest 417 480 32,000  Level Oakland Center
Tue 03:04:51 PM 40.2383 -119.3233 225° Southwest 419 482 32,000  Level Oakland Center
Tue 03:05:52 PM 40.1694 -119.4414 233° Southwest 410 472 32,000  Level Oakland Center
Tue 03:06:54 PM 40.0992 -119.5606 232° Southwest 414 476 32,000  Level Oakland Center
Tue 03:07:55 PM 40.0167 -119.7014 233° Southwest 411 473 32,000  Level Oakland Center
Tue 03:08:57 PM 39.9483 -119.8178 233° Southwest 407 468 32,000  Level Oakland Center
Tue 03:09:59 PM 39.8803 -119.9364 233° Southwest 410 472 32,000  Level Oakland Center
Tue 03:11:00 PM 39.8111 -120.0550 233° Southwest 413 475 32,000  Level Oakland Center
Tue 03:12:02 PM 39.7378 -120.1789 232° Southwest 412 474 32,000  Level Oakland Center
Tue 03:13:04 PM 39.6669 -120.2975 232° Southwest 414 476 32,000  Level Oakland Center
Tue 03:14:05 PM 39.5969 -120.4147 232° Southwest 412 474 32,000  Level Oakland Center
Tue 03:15:07 PM 39.5256 -120.5325 232° Southwest 416 479 32,000  Level Oakland Center
Tue 03:16:08 PM 39.4561 -120.6506 233° Southwest 415 478 32,000  Level Oakland Center
Tue 03:17:10 PM 39.3706 -120.7911 232° Southwest 416 479 32,000  Level Oakland Center
Tue 03:18:12 PM 39.3011 -120.9072 232° Southwest 410 472 32,000  Level Oakland Center
Tue 03:19:13 PM 39.2333 -121.0186 232° Southwest 399 459 32,000  Level Oakland Center
Tue 03:20:15 PM 39.1672 -121.1292 232° Southwest 392 451 32,000  Level Oakland Center
Tue 03:21:17 PM 39.1008 -121.2378 232° Southwest 389 448 32,000  Level Oakland Center
Tue 03:22:18 PM 39.0339 -121.3475 232° Southwest 392 451 32,000  Level Oakland Center
Tue 03:23:20 PM 38.9681 -121.4547 232° Southwest 387 445 32,000  Level Oakland Center
Tue 03:24:21 PM 38.8872 -121.5864 232° Southwest 393 452 32,000  Level Oakland Center
Tue 03:25:23 PM 38.8183 -121.6964 231° Southwest 397 457 32,000  Level Oakland Center
Tue 03:26:25 PM 38.7503 -121.8067 232° Southwest 397 457 32,000  Level Oakland Center
Tue 03:27:26 PM 38.6814 -121.9156 231° Southwest 393 452 32,000  Level Oakland Center
Tue 03:28:28 PM 38.6122 -122.0261 231° Southwest 398 458 32,000  Level Oakland Center
Tue 03:29:29 PM 38.5444 -122.1344 231° Southwest 395 455 32,000  Level Oakland Center
Tue 03:30:31 PM 38.4756 -122.2433 231° Southwest 396 456 32,000 -1,512 Level Oakland Center
Tue 03:31:32 PM 38.3664 -122.3406 215° Southwest 409 471 28,900 -3,366 Descending Oakland Center
Tue 03:32:34 PM 38.2639 -122.4150 210° Southwest 421 484 25,100 -4,016 Descending Oakland Center
Tue 03:33:36 PM 38.1636 -122.4858 209° Southwest 417 480 20,600 -4,488 Descending Oakland Center
Tue 03:34:37 PM 38.0731 -122.5506 209° Southwest 383 441 15,900 -3,951 Descending Oakland Center
Tue 03:35:39 PM 38.0256 -122.6561 240° Southwest 369 425 12,500 -2,390 Descending Oakland Center
Tue 03:36:40 PM 37.9861 -122.7833 249° West 326 375 11,000 -732 Descending Oakland Center
Tue 03:37:42 PM 37.9092 -122.7983 189° South 304 350 11,000  Level Oakland Center
Tue 03:38:44 PM 37.8483 -122.7208 135° Southeast 320 368 11,000  Level Oakland Center
Tue 03:39:45 PM 37.7947 -122.6361 129° Southeast 316 364 11,000  Level Oakland Center
Tue 03:40:47 PM 37.7611 -122.5367 113° Southeast 313 360 11,000  Level Oakland Center
Tue 03:41:48 PM 37.7264 -122.4331 113° Southeast 269 310 11,000 -488 Level Oakland Center
Tue 03:42:50 PM 37.7000 -122.3533 113° Southeast 251 289 10,000 -1,161 Descending Oakland Center
Tue 03:43:52 PM 37.6667 -122.2667 116° Southeast 251 289 8,600 -1,377 Descending Northern Cal TRACON
Tue 03:44:52 PM 37.6500 -122.2000 108° East 243 280 7,200 -1,250 Descending Northern Cal TRACON
Tue 03:45:52 PM 37.6000 -122.1333 133° Southeast 235 270 6,100 -1,050 Descending Northern Cal TRACON
Tue 03:46:52 PM 37.5500 -122.1500 195° South 231 266 5,100 -1,400 Descending Northern Cal TRACON
Tue 03:47:52 PM 37.5667 -122.2167 288° West 189 217 3,300 -1,632 Descending Northern Cal TRACON
Tue 03:48:46 PM 37.5833 -122.2667 293° West 182 209 2,000 -1,158 Descending Northern Cal TRACON
Tue 03:49:46 PM 37.6000 -122.3167 293° West 151 174 1,100 -696 Descending Northern Cal TRACON
Tue 03:51:04 PM 37.6178 -122.3717 292° West 164 189 400 -538 Descending Oakland Center

Login

Don't have an account? Register now (free) for customized features, flight alerts, and more!